Ktima, Cyprus
Current Conditions -  °F | °C
As of 4:30 AM on Wednesday 22 Oct 2014 (Local Time) from LCPH Reporting Station
Broken Clouds Broken Clouds  
Wind Chill: 18°   Ceiling: 3100
Heat Index: 18°   Visibility: 6mi
Dew Point: 13°   Wind: 12mph
Humidity: 73%   Direction: 30°NNE
Pressure: 30"   Gusts: NA
Location:  34.76°N, 32.42°E
Report Text: LCPH 220130Z AUTO 03010KT 9999 BKN031 BKN039 18/13 Q1016
Loading
Personal Weather Stations






























Interactive Weather Map
Tropical Storm Tracking
New forecast layout! Learn more

10-Day Weather Forecast

Advertisements
Track Severe Weather on mobile